createdAt,value
2023-01-08T00:04:23.485Z,10.00
2023-01-08T00:06:52.838Z,10.00
2023-01-08T00:11:50.623Z,9.90
2023-01-08T00:14:21.334Z,10.00
2023-01-08T00:16:50.731Z,10.00
2023-01-08T00:19:19.381Z,9.90
2023-01-08T00:21:48.870Z,9.90
2023-01-08T00:24:18.202Z,10.20
2023-01-08T00:26:47.482Z,10.10
2023-01-08T00:29:16.089Z,9.60
2023-01-08T00:31:48.029Z,10.10
2023-01-08T00:34:16.109Z,10.10
2023-01-08T00:36:45.504Z,10.20
2023-01-08T00:39:14.834Z,10.20
2023-01-08T00:44:14.797Z,10.10
2023-01-08T00:46:42.911Z,10.10
2023-01-08T00:49:13.569Z,10.20
2023-01-08T00:51:42.892Z,10.00
2023-01-08T00:54:11.903Z,10.00
2023-01-08T00:56:39.993Z,10.10
2023-01-08T00:59:09.355Z,10.10
2023-01-08T01:01:38.023Z,10.10
2023-01-08T01:04:07.492Z,10.00
2023-01-08T01:06:38.188Z,10.20
2023-01-08T01:09:09.175Z,10.10
2023-01-08T01:11:38.537Z,10.20
2023-01-08T01:14:07.988Z,10.10
2023-01-08T01:19:07.797Z,10.20
2023-01-08T01:21:38.507Z,10.20
2023-01-08T01:24:09.199Z,10.00
2023-01-08T01:26:38.518Z,10.10
2023-01-08T01:29:08.010Z,10.10
2023-01-08T01:31:36.169Z,10.10
2023-01-08T01:34:04.419Z,10.10
2023-01-08T01:36:32.544Z,10.00
2023-01-08T01:39:02.062Z,10.10
2023-01-08T01:41:33.554Z,10.10
2023-01-08T01:44:39.514Z,10.10
2023-01-08T01:47:22.408Z,10.20
2023-01-08T01:49:57.935Z,10.10
2023-01-08T01:52:29.773Z,10.10
2023-01-08T01:55:00.858Z,10.10
2023-01-08T01:57:29.841Z,9.60
2023-01-08T02:00:00.471Z,10.00
2023-01-08T02:02:40.042Z,10.10
2023-01-08T02:05:09.514Z,10.10
2023-01-08T02:07:46.926Z,10.30
2023-01-08T02:10:22.395Z,10.10
2023-01-08T02:12:59.878Z,10.00
2023-01-08T02:15:39.851Z,9.90
2023-01-08T02:18:15.984Z,10.10
2023-01-08T02:20:51.091Z,9.90
2023-01-08T02:23:32.718Z,10.30
2023-01-08T02:26:18.537Z,9.80
2023-01-08T02:28:55.059Z,10.10
2023-01-08T02:31:28.327Z,10.20
2023-01-08T02:33:58.067Z,9.90
2023-01-08T02:36:42.610Z,10.10
2023-01-08T02:39:36.747Z,10.00
2023-01-08T02:42:17.487Z,10.10
2023-01-08T02:45:07.634Z,10.30
2023-01-08T02:47:46.636Z,9.90
2023-01-08T02:50:22.855Z,10.20
2023-01-08T02:53:04.327Z,10.00
2023-01-08T02:55:36.601Z,10.00
2023-01-08T02:58:09.617Z,10.10
2023-01-08T03:00:40.982Z,10.00
2023-01-08T03:03:13.509Z,10.00
2023-01-08T03:05:45.050Z,10.00
2023-01-08T03:08:15.138Z,10.00
2023-01-08T03:10:47.244Z,10.00
2023-01-08T03:13:25.411Z,10.30
2023-01-08T03:15:59.567Z,10.10
2023-01-08T03:18:34.183Z,10.10
2023-01-08T03:21:04.811Z,9.90
2023-01-08T03:23:34.562Z,10.00
2023-01-08T03:26:04.751Z,9.90
2023-01-08T03:28:44.029Z,9.80
2023-01-08T03:31:16.505Z,9.80
2023-01-08T03:33:49.438Z,9.90
2023-01-08T03:36:23.207Z,9.90
2023-01-08T03:38:59.257Z,9.90
2023-01-08T03:41:32.169Z,9.80
2023-01-08T03:44:03.452Z,9.80
2023-01-08T03:46:36.621Z,9.70
2023-01-08T03:49:05.894Z,9.80
2023-01-08T03:51:41.865Z,9.50
2023-01-08T03:54:15.548Z,10.00
2023-01-08T03:56:45.410Z,9.50
2023-01-08T03:59:17.091Z,9.30
2023-01-08T04:01:46.552Z,9.20
2023-01-08T04:04:16.236Z,9.70
2023-01-08T04:06:44.571Z,9.60
2023-01-08T04:09:13.998Z,9.50
2023-01-08T04:14:12.342Z,9.40
2023-01-08T04:16:41.868Z,9.30
2023-01-08T04:19:11.958Z,9.30
2023-01-08T04:21:40.243Z,9.20
2023-01-08T04:24:09.865Z,9.30
2023-01-08T04:26:37.974Z,9.30
2023-01-08T04:29:07.614Z,9.20
2023-01-08T04:31:36.938Z,9.30
2023-01-08T04:34:07.609Z,9.20
2023-01-08T04:36:36.976Z,8.90
2023-01-08T04:39:06.654Z,9.60
2023-01-08T04:41:35.991Z,9.30
2023-01-08T04:46:34.323Z,9.00
2023-01-08T04:49:02.566Z,9.50
2023-01-08T04:51:32.005Z,9.90
2023-01-08T04:54:02.503Z,9.40
2023-01-08T04:56:32.575Z,9.30
2023-01-08T05:01:31.833Z,9.30
2023-01-08T05:04:04.584Z,9.50
2023-01-08T05:06:35.337Z,9.40
2023-01-08T05:09:06.508Z,9.40
2023-01-08T05:11:35.675Z,9.10
2023-01-08T05:14:05.414Z,9.20
2023-01-08T05:16:33.557Z,9.20
2023-01-08T05:19:02.870Z,9.20
2023-01-08T05:21:32.296Z,9.10
2023-01-08T05:24:03.024Z,9.20
2023-01-08T05:26:32.396Z,9.20
2023-01-08T05:29:00.549Z,9.10
2023-01-08T05:31:28.692Z,9.10
2023-01-08T05:34:00.219Z,9.10
2023-01-08T05:36:31.094Z,9.40
2023-01-08T05:39:03.005Z,9.20
2023-01-08T05:44:01.664Z,9.10
2023-01-08T05:46:31.074Z,9.20
2023-01-08T05:49:00.448Z,9.20
2023-01-08T05:51:29.773Z,9.20
2023-01-08T05:54:00.348Z,9.30
2023-01-08T05:56:31.040Z,9.20
2023-01-08T05:59:01.551Z,9.30
2023-01-08T06:01:29.780Z,9.20
2023-01-08T06:03:59.712Z,9.20
2023-01-08T06:06:29.066Z,9.10
2023-01-08T06:11:26.901Z,9.20
2023-01-08T06:13:57.598Z,9.20
2023-01-08T06:16:27.019Z,8.90
2023-01-08T06:18:55.164Z,9.10
2023-01-08T06:21:24.519Z,9.20
2023-01-08T06:26:23.578Z,9.10
2023-01-08T06:28:52.917Z,8.50
2023-01-08T06:31:22.429Z,9.10
2023-01-08T06:33:51.887Z,9.10
2023-01-08T06:36:21.212Z,9.10
2023-01-08T06:38:50.567Z,9.00
2023-01-08T06:41:20.291Z,8.90
2023-01-08T06:43:49.699Z,9.50
2023-01-08T06:46:19.325Z,8.90
2023-01-08T06:48:50.016Z,8.50
2023-01-08T06:51:18.238Z,8.80
2023-01-08T06:53:50.485Z,8.20
2023-01-08T06:56:19.769Z,9.10
2023-01-08T06:58:49.123Z,8.90
2023-01-08T07:01:18.989Z,9.10
2023-01-08T07:03:50.270Z,8.80
2023-01-08T07:06:22.134Z,9.20
2023-01-08T07:08:51.910Z,8.70
2023-01-08T07:11:20.077Z,8.80
2023-01-08T07:16:17.952Z,8.60
2023-01-08T07:18:46.071Z,9.90
2023-01-08T07:21:18.331Z,8.60
2023-01-08T07:23:50.055Z,8.60
2023-01-08T07:28:48.040Z,8.50
2023-01-08T07:31:17.389Z,8.80
2023-01-08T07:33:45.661Z,8.70
2023-01-08T07:36:15.214Z,8.70
2023-01-08T07:38:45.838Z,8.70
2023-01-08T07:41:16.383Z,8.70
2023-01-08T07:43:48.154Z,9.00
2023-01-08T07:46:16.652Z,8.70
2023-01-08T07:48:44.814Z,8.90
2023-01-08T07:51:12.983Z,8.70
2023-01-08T07:53:41.274Z,8.60
2023-01-08T07:56:13.633Z,8.80
2023-01-08T07:58:41.774Z,8.60
2023-01-08T08:01:12.291Z,8.60
2023-01-08T08:03:42.494Z,8.50
2023-01-08T08:06:12.334Z,8.70
2023-01-08T08:08:42.382Z,8.60
2023-01-08T08:11:13.193Z,8.60
2023-01-08T08:13:44.814Z,8.50
2023-01-08T08:16:15.511Z,8.50
2023-01-08T08:18:44.895Z,8.50
2023-01-08T08:21:15.932Z,8.50
2023-01-08T08:23:45.237Z,8.50
2023-01-08T08:26:15.944Z,8.50
2023-01-08T08:28:45.419Z,8.60
2023-01-08T08:31:14.937Z,8.50
2023-01-08T08:33:43.288Z,8.50
2023-01-08T08:36:11.597Z,8.80
2023-01-08T08:38:41.282Z,8.70
2023-01-08T08:41:10.644Z,8.70
2023-01-08T08:43:41.387Z,9.30
2023-01-08T08:46:12.080Z,9.00
2023-01-08T08:48:40.270Z,9.00
2023-01-08T08:51:09.705Z,9.10
2023-01-08T08:53:39.184Z,9.20
2023-01-08T08:56:10.393Z,9.20
2023-01-08T08:58:39.109Z,9.20
2023-01-08T09:01:11.053Z,9.60
2023-01-08T09:03:40.799Z,9.40
2023-01-08T09:06:15.159Z,9.30
2023-01-08T09:11:15.431Z,9.50
2023-01-08T09:13:44.824Z,9.50
2023-01-08T09:16:15.630Z,9.60
2023-01-08T09:18:45.694Z,9.50
2023-01-08T09:21:16.209Z,10.10
2023-01-08T09:23:44.323Z,9.60
2023-01-08T09:26:14.885Z,9.50
2023-01-08T09:28:43.034Z,9.80
2023-01-08T09:31:12.564Z,9.50
2023-01-08T09:33:43.435Z,9.50
2023-01-08T09:36:13.891Z,9.70
2023-01-08T09:38:43.179Z,9.50
2023-01-08T09:41:19.041Z,9.60
2023-01-08T09:43:51.822Z,9.60
2023-01-08T09:46:26.804Z,9.70
2023-01-08T09:49:05.697Z,9.70
2023-01-08T09:51:38.677Z,9.50
2023-01-08T09:54:10.866Z,9.40
2023-01-08T09:56:40.871Z,9.50
2023-01-08T09:59:17.495Z,9.60
2023-01-08T10:01:50.041Z,9.50
2023-01-08T10:04:23.417Z,9.50
2023-01-08T10:06:58.637Z,9.40
2023-01-08T10:09:30.608Z,9.30
2023-01-08T10:12:05.204Z,9.50
2023-01-08T10:14:39.824Z,9.50
2023-01-08T10:17:18.286Z,9.70
2023-01-08T10:19:47.909Z,9.50
2023-01-08T10:22:21.723Z,10.30
2023-01-08T10:24:51.551Z,10.70
2023-01-08T10:27:23.393Z,10.90
2023-01-08T10:29:54.483Z,11.90
2023-01-08T10:32:29.844Z,12.50
2023-01-08T10:35:01.409Z,12.80
2023-01-08T10:37:38.080Z,13.70
2023-01-08T10:40:22.156Z,13.40
2023-01-08T10:42:52.050Z,13.90
2023-01-08T10:45:23.052Z,14.10
2023-01-08T10:47:58.137Z,14.00
2023-01-08T10:50:33.393Z,14.30
2023-01-08T10:53:03.892Z,13.20
2023-01-08T10:55:37.526Z,12.70
2023-01-08T10:58:16.660Z,11.80
2023-01-08T11:03:28.567Z,10.90
2023-01-08T11:06:00.911Z,10.70
2023-01-08T11:08:29.229Z,10.80
2023-01-08T11:11:02.434Z,10.50
2023-01-08T11:13:31.130Z,10.40
2023-01-08T11:16:06.179Z,10.30
2023-01-08T11:18:47.129Z,10.10
2023-01-08T11:21:26.004Z,10.10
2023-01-08T11:24:16.278Z,10.20
2023-01-08T11:26:50.874Z,10.10
2023-01-08T11:29:30.067Z,10.30
2023-01-08T11:32:32.693Z,10.00
2023-01-08T11:35:05.192Z,10.10
2023-01-08T11:37:41.123Z,10.60
2023-01-08T11:40:17.769Z,10.40
2023-01-08T11:43:03.623Z,10.40
2023-01-08T11:45:46.053Z,10.40
2023-01-08T11:48:44.176Z,10.40
2023-01-08T11:51:41.543Z,10.50
2023-01-08T11:54:25.407Z,10.50
2023-01-08T11:57:18.587Z,10.40
2023-01-08T12:00:16.592Z,10.30
2023-01-08T12:02:56.905Z,10.30
2023-01-08T12:05:32.390Z,10.60
2023-01-08T12:08:06.640Z,11.00
2023-01-08T12:10:52.634Z,11.30
2023-01-08T12:13:37.715Z,11.90
2023-01-08T12:16:26.492Z,12.00
2023-01-08T12:19:18.464Z,12.10
2023-01-08T12:22:07.599Z,12.70
2023-01-08T12:25:00.631Z,13.90
2023-01-08T12:27:58.940Z,12.40
2023-01-08T12:30:45.726Z,13.10
2023-01-08T12:33:33.869Z,14.10
2023-01-08T12:36:07.895Z,14.20
2023-01-08T12:38:40.858Z,14.30
2023-01-08T12:41:15.291Z,14.70
2023-01-08T12:43:55.116Z,15.20
2023-01-08T12:46:25.964Z,15.80
2023-01-08T12:48:57.661Z,16.10
2023-01-08T12:51:34.760Z,15.70
2023-01-08T12:54:17.192Z,15.70
2023-01-08T12:56:56.375Z,15.70
2023-01-08T12:59:43.649Z,16.30
2023-01-08T13:02:28.158Z,15.40
2023-01-08T13:04:56.481Z,15.40
2023-01-08T13:07:31.657Z,15.40
2023-01-08T13:10:07.012Z,14.80
2023-01-08T13:12:40.067Z,13.60
2023-01-08T13:15:20.967Z,13.00
2023-01-08T13:17:51.599Z,12.30
2023-01-08T13:20:25.907Z,11.80
2023-01-08T13:22:55.889Z,11.70
2023-01-08T13:25:33.923Z,11.60
2023-01-08T13:28:26.952Z,11.60
2023-01-08T13:31:10.420Z,11.60
2023-01-08T13:33:43.383Z,12.00
2023-01-08T13:36:26.990Z,11.70
2023-01-08T13:39:22.168Z,12.10
2023-01-08T13:42:21.483Z,11.60
2023-01-08T13:44:53.498Z,11.70
2023-01-08T13:47:33.605Z,11.50
2023-01-08T13:50:06.750Z,11.20
2023-01-08T13:52:45.075Z,10.90
2023-01-08T13:55:18.572Z,11.00
2023-01-08T13:57:55.223Z,10.90
2023-01-08T14:00:30.717Z,10.40
2023-01-08T14:03:02.697Z,10.60
2023-01-08T14:05:34.684Z,11.10
2023-01-08T14:08:04.224Z,10.90
2023-01-08T14:10:32.813Z,10.80
2023-01-08T14:13:10.965Z,11.50
2023-01-08T14:15:40.785Z,12.40
2023-01-08T14:18:15.686Z,11.00
2023-01-08T14:20:49.925Z,11.30
2023-01-08T14:23:24.633Z,10.90
2023-01-08T14:25:53.578Z,11.00
2023-01-08T14:28:25.676Z,11.00
2023-01-08T14:30:56.880Z,11.30
2023-01-08T14:33:33.159Z,11.20
2023-01-08T14:36:06.163Z,11.10
2023-01-08T14:38:34.416Z,10.40
2023-01-08T14:41:06.278Z,10.70
2023-01-08T14:43:41.279Z,10.60
2023-01-08T14:46:21.157Z,10.40
2023-01-08T14:48:54.479Z,10.40
2023-01-08T14:51:26.676Z,10.40
2023-01-08T14:54:00.534Z,10.10
2023-01-08T14:56:34.309Z,10.20
2023-01-08T14:59:09.871Z,10.00
2023-01-08T15:04:18.625Z,10.00
2023-01-08T15:06:47.426Z,10.00
2023-01-08T15:09:24.236Z,10.00
2023-01-08T15:11:56.912Z,9.90
2023-01-08T15:14:26.935Z,9.80
2023-01-08T15:16:58.169Z,9.40
2023-01-08T15:19:32.466Z,8.60
2023-01-08T15:22:03.538Z,8.80
2023-01-08T15:24:36.563Z,8.60
2023-01-08T15:27:11.734Z,8.30
2023-01-08T15:29:50.142Z,8.10
2023-01-08T15:32:25.340Z,7.90
2023-01-08T15:34:54.866Z,7.80
2023-01-08T15:42:42.336Z,7.40
2023-01-08T15:45:15.403Z,7.20
2023-01-08T15:47:43.559Z,7.10
2023-01-08T15:50:13.668Z,7.00
2023-01-08T15:52:44.517Z,6.90
2023-01-08T15:55:19.337Z,6.70
2023-01-08T15:57:49.093Z,6.70
2023-01-08T16:00:20.053Z,6.60
2023-01-08T16:02:50.610Z,6.50
2023-01-08T16:05:22.850Z,6.50
2023-01-08T16:07:52.449Z,6.40
2023-01-08T16:10:21.810Z,6.60
2023-01-08T16:12:52.413Z,6.30
2023-01-08T16:15:22.686Z,6.40
2023-01-08T16:17:53.413Z,6.40
2023-01-08T16:20:24.073Z,6.40
2023-01-08T16:22:55.903Z,6.20
2023-01-08T16:25:25.181Z,6.20
2023-01-08T16:30:26.667Z,5.90
2023-01-08T16:32:56.297Z,6.00
2023-01-08T16:35:27.025Z,5.80
2023-01-08T16:37:56.973Z,6.00
2023-01-08T16:40:26.301Z,5.90
2023-01-08T16:43:02.092Z,5.90
2023-01-08T16:45:31.519Z,6.00
2023-01-08T16:48:02.051Z,6.10
2023-01-08T16:50:33.859Z,6.20
2023-01-08T16:53:02.094Z,6.30
2023-01-08T16:55:31.482Z,6.30
2023-01-08T16:58:00.941Z,6.40
2023-01-08T17:00:29.171Z,6.40
2023-01-08T17:02:58.679Z,6.50
2023-01-08T17:05:26.795Z,6.60
2023-01-08T17:07:59.454Z,6.40
2023-01-08T17:10:28.832Z,6.80
2023-01-08T17:12:58.272Z,6.80
2023-01-08T17:15:27.623Z,6.80
2023-01-08T17:17:59.660Z,6.90
2023-01-08T17:20:29.245Z,6.90
2023-01-08T17:23:02.656Z,6.70
2023-01-08T17:25:32.141Z,7.00
2023-01-08T17:28:01.536Z,7.10
2023-01-08T17:30:30.890Z,6.90
2023-01-08T17:32:59.203Z,7.00
2023-01-08T17:35:28.984Z,7.20
2023-01-08T17:37:57.182Z,6.90
2023-01-08T17:40:27.961Z,6.80
2023-01-08T17:42:57.947Z,6.80
2023-01-08T17:47:55.810Z,6.60
2023-01-08T17:50:25.145Z,6.80
2023-01-08T17:55:26.788Z,7.00
2023-01-08T17:57:56.105Z,7.20
2023-01-08T18:00:25.097Z,6.60
2023-01-08T18:05:24.428Z,7.10
2023-01-08T18:07:55.047Z,6.80
2023-01-08T18:15:22.782Z,7.10
2023-01-08T18:17:52.588Z,7.30
2023-01-08T18:20:21.013Z,7.30
2023-01-08T18:22:52.386Z,6.70
2023-01-08T18:25:20.654Z,7.00
2023-01-08T18:27:49.964Z,6.60
2023-01-08T18:30:19.664Z,6.50
2023-01-08T18:32:50.224Z,6.40
2023-01-08T18:35:19.572Z,6.20
2023-01-08T18:40:18.148Z,6.20
2023-01-08T18:42:49.936Z,6.10
2023-01-08T18:45:19.614Z,6.10
2023-01-08T18:47:49.006Z,6.70
2023-01-08T18:50:17.821Z,6.00
2023-01-08T18:52:47.121Z,6.00
2023-01-08T18:55:15.230Z,6.00
2023-01-08T18:57:46.797Z,5.90
2023-01-08T19:00:16.823Z,5.80
2023-01-08T19:02:48.761Z,5.80
2023-01-08T19:10:18.258Z,5.30
2023-01-08T19:15:17.852Z,6.00
2023-01-08T19:17:48.563Z,5.30
2023-01-08T19:20:16.965Z,5.20
2023-01-08T19:22:45.214Z,5.30
2023-01-08T19:25:15.038Z,5.40
2023-01-08T19:27:45.663Z,5.40
2023-01-08T19:30:14.329Z,5.40
2023-01-08T19:35:14.926Z,5.40
2023-01-08T19:37:44.307Z,5.40
2023-01-08T19:40:14.599Z,5.40
2023-01-08T19:43:02.861Z,5.40
2023-01-08T19:48:02.005Z,5.40
2023-01-08T19:50:34.115Z,5.40
2023-01-08T19:53:04.492Z,5.30
2023-01-08T19:55:33.118Z,5.30
2023-01-08T19:58:02.470Z,5.20
2023-01-08T20:00:37.025Z,5.30
2023-01-08T20:03:06.614Z,5.80
2023-01-08T20:05:36.072Z,5.20
2023-01-08T20:08:06.088Z,5.20
2023-01-08T20:10:35.405Z,5.20
2023-01-08T20:15:32.448Z,5.20
2023-01-08T20:18:01.848Z,5.30
2023-01-08T20:20:30.012Z,5.20
2023-01-08T20:23:00.789Z,5.50
2023-01-08T20:25:30.225Z,5.60
2023-01-08T20:27:59.607Z,5.60
2023-01-08T20:30:29.153Z,5.80
2023-01-08T20:32:59.724Z,5.80
2023-01-08T20:35:29.024Z,5.40
2023-01-08T20:37:57.148Z,6.00
2023-01-08T20:42:56.370Z,6.10
2023-01-08T20:45:25.951Z,6.20
2023-01-08T20:52:51.688Z,5.80
2023-01-08T20:57:52.622Z,6.80
2023-01-08T21:00:22.034Z,5.40
2023-01-08T21:02:50.181Z,5.30
2023-01-08T21:05:20.762Z,5.30
2023-01-08T21:07:50.075Z,5.10
2023-01-08T21:12:49.301Z,5.00
2023-01-08T21:17:52.396Z,4.90
2023-01-08T21:20:20.786Z,4.90
2023-01-08T21:22:48.916Z,5.40
2023-01-08T21:25:20.233Z,4.90
2023-01-08T21:27:49.572Z,4.70
2023-01-08T21:30:20.865Z,4.80
2023-01-08T21:32:50.244Z,4.70
2023-01-08T21:40:16.887Z,5.50
2023-01-08T21:43:03.180Z,5.10
2023-01-08T21:45:33.973Z,5.80
2023-01-08T21:48:03.374Z,5.40
2023-01-08T21:50:31.615Z,5.60
2023-01-08T21:53:18.741Z,5.60
2023-01-08T21:55:48.147Z,5.70
2023-01-08T21:58:17.479Z,5.80
2023-01-08T22:00:49.440Z,5.90
2023-01-08T22:05:57.828Z,5.90
2023-01-08T22:08:28.102Z,5.90
2023-01-08T22:10:59.008Z,6.10
2023-01-08T22:13:28.631Z,6.80
2023-01-08T22:18:37.877Z,6.30
2023-01-08T22:21:08.966Z,6.20
2023-01-08T22:23:38.499Z,6.50
2023-01-08T22:26:09.004Z,6.40
2023-01-08T22:28:39.203Z,6.50
2023-01-08T22:31:10.669Z,6.40
2023-01-08T22:33:40.656Z,6.60
2023-01-08T22:36:12.093Z,6.10
2023-01-08T22:41:19.451Z,6.50
2023-01-08T22:43:48.798Z,6.60
2023-01-08T22:46:18.325Z,6.60
2023-01-08T22:48:47.690Z,6.60
2023-01-08T22:51:17.169Z,6.90
2023-01-08T22:53:46.249Z,6.60
2023-01-08T22:56:15.814Z,6.70
2023-01-08T22:58:45.377Z,6.90
2023-01-08T23:01:17.960Z,6.70
2023-01-08T23:03:51.055Z,6.70
2023-01-08T23:06:24.234Z,6.90
2023-01-08T23:08:55.557Z,6.90
2023-01-08T23:11:26.947Z,6.30
2023-01-08T23:16:25.816Z,6.90
2023-01-08T23:18:56.002Z,7.00
2023-01-08T23:21:27.844Z,6.80
2023-01-08T23:23:58.912Z,6.80
2023-01-08T23:26:30.573Z,7.10
2023-01-08T23:29:01.840Z,7.00
2023-01-08T23:31:32.448Z,7.00
2023-01-08T23:34:04.454Z,7.10
2023-01-08T23:36:32.992Z,7.10
2023-01-08T23:39:01.551Z,7.80
2023-01-08T23:41:35.331Z,7.40
2023-01-08T23:44:09.261Z,7.20
2023-01-08T23:46:37.633Z,7.20
2023-01-08T23:49:10.063Z,7.30
2023-01-08T23:51:42.143Z,7.20
2023-01-08T23:54:12.271Z,7.20
2023-01-08T23:56:43.779Z,7.50
2023-01-08T23:59:13.500Z,7.40
